sensor_id;sensor_type;location;lat;lon;timestamp;P1;durP1;ratioP1;P2;durP2;ratioP2
43756;SDS011;73222;41.866;12.462;2023-11-19T00:01:34;19.73;;;11.10;;
43756;SDS011;73222;41.866;12.462;2023-11-19T00:03:59;24.30;;;12.88;;
43756;SDS011;73222;41.866;12.462;2023-11-19T00:06:25;18.35;;;11.25;;
43756;SDS011;73222;41.866;12.462;2023-11-19T00:08:50;19.58;;;11.82;;
43756;SDS011;73222;41.866;12.462;2023-11-19T00:11:16;21.35;;;11.38;;
43756;SDS011;73222;41.866;12.462;2023-11-19T00:13:41;20.52;;;11.13;;
43756;SDS011;73222;41.866;12.462;2023-11-19T00:16:07;16.90;;;10.52;;
43756;SDS011;73222;41.866;12.462;2023-11-19T00:18:34;21.67;;;11.02;;
43756;SDS011;73222;41.866;12.462;2023-11-19T00:21:01;20.65;;;10.18;;
43756;SDS011;73222;41.866;12.462;2023-11-19T00:23:27;20.55;;;10.48;;
43756;SDS011;73222;41.866;12.462;2023-11-19T00:25:52;17.23;;;9.70;;
43756;SDS011;73222;41.866;12.462;2023-11-19T00:28:18;18.55;;;10.73;;
43756;SDS011;73222;41.866;12.462;2023-11-19T00:30:43;16.77;;;10.07;;
43756;SDS011;73222;41.866;12.462;2023-11-19T00:33:08;19.60;;;10.70;;
43756;SDS011;73222;41.866;12.462;2023-11-19T00:35:34;16.83;;;9.98;;
43756;SDS011;73222;41.866;12.462;2023-11-19T00:37:59;16.73;;;10.80;;
43756;SDS011;73222;41.866;12.462;2023-11-19T00:40:25;17.70;;;10.02;;
43756;SDS011;73222;41.866;12.462;2023-11-19T00:42:52;17.13;;;10.82;;
43756;SDS011;73222;41.866;12.462;2023-11-19T00:45:17;16.70;;;11.07;;
43756;SDS011;73222;41.866;12.462;2023-11-19T00:47:43;21.75;;;10.90;;
43756;SDS011;73222;41.866;12.462;2023-11-19T00:50:08;15.82;;;10.73;;
43756;SDS011;73222;41.866;12.462;2023-11-19T00:52:35;17.88;;;10.15;;
43756;SDS011;73222;41.866;12.462;2023-11-19T00:55:01;16.58;;;10.60;;
43756;SDS011;73222;41.866;12.462;2023-11-19T00:57:27;17.80;;;9.98;;
43756;SDS011;73222;41.866;12.462;2023-11-19T00:59:52;18.05;;;10.23;;
43756;SDS011;73222;41.866;12.462;2023-11-19T01:02:18;20.00;;;9.95;;
43756;SDS011;73222;41.866;12.462;2023-11-19T01:04:43;15.90;;;10.40;;
43756;SDS011;73222;41.866;12.462;2023-11-19T01:07:09;16.40;;;10.10;;
43756;SDS011;73222;41.866;12.462;2023-11-19T01:12:03;18.65;;;10.27;;
43756;SDS011;73222;41.866;12.462;2023-11-19T01:14:29;16.10;;;9.48;;
43756;SDS011;73222;41.866;12.462;2023-11-19T01:16:55;23.20;;;11.20;;
43756;SDS011;73222;41.866;12.462;2023-11-19T01:19:21;17.15;;;10.13;;
43756;SDS011;73222;41.866;12.462;2023-11-19T01:21:47;16.63;;;9.98;;
43756;SDS011;73222;41.866;12.462;2023-11-19T01:24:14;17.02;;;9.93;;
43756;SDS011;73222;41.866;12.462;2023-11-19T01:26:40;18.17;;;9.45;;
43756;SDS011;73222;41.866;12.462;2023-11-19T01:29:15;15.55;;;9.55;;
43756;SDS011;73222;41.866;12.462;2023-11-19T01:31:45;16.60;;;10.00;;
43756;SDS011;73222;41.866;12.462;2023-11-19T01:34:16;20.65;;;10.30;;
43756;SDS011;73222;41.866;12.462;2023-11-19T01:36:43;26.02;;;9.75;;
43756;SDS011;73222;41.866;12.462;2023-11-19T01:39:11;19.05;;;9.88;;
43756;SDS011;73222;41.866;12.462;2023-11-19T01:41:37;16.77;;;9.70;;
43756;SDS011;73222;41.866;12.462;2023-11-19T01:44:05;16.92;;;10.02;;
43756;SDS011;73222;41.866;12.462;2023-11-19T01:46:31;14.43;;;9.48;;
43756;SDS011;73222;41.866;12.462;2023-11-19T01:48:57;18.83;;;9.35;;
43756;SDS011;73222;41.866;12.462;2023-11-19T01:51:24;17.40;;;9.85;;
43756;SDS011;73222;41.866;12.462;2023-11-19T01:53:51;16.40;;;9.30;;
43756;SDS011;73222;41.866;12.462;2023-11-19T01:56:17;18.52;;;10.93;;
43756;SDS011;73222;41.866;12.462;2023-11-19T01:58:43;18.02;;;9.27;;
43756;SDS011;73222;41.866;12.462;2023-11-19T02:01:10;18.00;;;9.98;;
43756;SDS011;73222;41.866;12.462;2023-11-19T02:03:37;16.20;;;9.82;;
43756;SDS011;73222;41.866;12.462;2023-11-19T02:06:03;14.55;;;9.00;;
43756;SDS011;73222;41.866;12.462;2023-11-19T02:08:29;15.63;;;8.55;;
43756;SDS011;73222;41.866;12.462;2023-11-19T02:10:55;15.50;;;8.65;;
43756;SDS011;73222;41.866;12.462;2023-11-19T02:13:23;15.82;;;8.63;;
43756;SDS011;73222;41.866;12.462;2023-11-19T02:15:50;16.33;;;9.07;;
43756;SDS011;73222;41.866;12.462;2023-11-19T02:18:26;13.52;;;8.52;;
43756;SDS011;73222;41.866;12.462;2023-11-19T02:20:56;16.58;;;8.52;;
43756;SDS011;73222;41.866;12.462;2023-11-19T02:23:22;14.73;;;7.80;;
43756;SDS011;73222;41.866;12.462;2023-11-19T02:26:00;18.02;;;9.23;;
43756;SDS011;73222;41.866;12.462;2023-11-19T02:28:27;15.55;;;8.20;;
43756;SDS011;73222;41.866;12.462;2023-11-19T02:30:52;14.55;;;9.15;;
43756;SDS011;73222;41.866;12.462;2023-11-19T02:33:18;13.05;;;7.95;;
43756;SDS011;73222;41.866;12.462;2023-11-19T02:35:44;15.85;;;8.52;;
43756;SDS011;73222;41.866;12.462;2023-11-19T02:38:09;17.40;;;8.85;;
43756;SDS011;73222;41.866;12.462;2023-11-19T02:40:35;15.60;;;8.52;;
43756;SDS011;73222;41.866;12.462;2023-11-19T02:43:01;15.32;;;7.63;;
43756;SDS011;73222;41.866;12.462;2023-11-19T02:45:27;14.23;;;8.95;;
43756;SDS011;73222;41.866;12.462;2023-11-19T02:47:52;16.20;;;7.78;;
43756;SDS011;73222;41.866;12.462;2023-11-19T02:50:19;18.80;;;8.20;;
43756;SDS011;73222;41.866;12.462;2023-11-19T02:52:50;12.55;;;7.40;;
43756;SDS011;73222;41.866;12.462;2023-11-19T02:55:17;13.88;;;7.40;;
43756;SDS011;73222;41.866;12.462;2023-11-19T02:57:43;12.80;;;7.22;;
43756;SDS011;73222;41.866;12.462;2023-11-19T03:00:14;12.25;;;6.53;;
43756;SDS011;73222;41.866;12.462;2023-11-19T03:02:43;12.00;;;6.90;;
43756;SDS011;73222;41.866;12.462;2023-11-19T03:05:12;12.55;;;7.43;;
43756;SDS011;73222;41.866;12.462;2023-11-19T03:07:39;10.55;;;6.45;;
43756;SDS011;73222;41.866;12.462;2023-11-19T03:10:09;11.70;;;6.72;;
43756;SDS011;73222;41.866;12.462;2023-11-19T03:12:38;10.95;;;6.63;;
43756;SDS011;73222;41.866;12.462;2023-11-19T03:15:07;12.23;;;6.90;;
43756;SDS011;73222;41.866;12.462;2023-11-19T03:17:39;10.60;;;6.50;;
43756;SDS011;73222;41.866;12.462;2023-11-19T03:20:06;12.45;;;5.90;;
43756;SDS011;73222;41.866;12.462;2023-11-19T03:22:34;10.48;;;6.45;;
43756;SDS011;73222;41.866;12.462;2023-11-19T03:25:02;11.35;;;6.97;;
43756;SDS011;73222;41.866;12.462;2023-11-19T03:27:27;9.40;;;5.95;;
43756;SDS011;73222;41.866;12.462;2023-11-19T03:29:53;11.35;;;6.50;;
43756;SDS011;73222;41.866;12.462;2023-11-19T03:32:18;10.18;;;6.75;;
43756;SDS011;73222;41.866;12.462;2023-11-19T03:34:44;13.82;;;7.57;;
43756;SDS011;73222;41.866;12.462;2023-11-19T03:37:10;13.15;;;7.03;;
43756;SDS011;73222;41.866;12.462;2023-11-19T03:39:37;10.77;;;6.22;;
43756;SDS011;73222;41.866;12.462;2023-11-19T03:42:03;14.20;;;7.47;;
43756;SDS011;73222;41.866;12.462;2023-11-19T03:44:28;11.50;;;7.05;;
43756;SDS011;73222;41.866;12.462;2023-11-19T03:46:54;11.23;;;6.55;;
43756;SDS011;73222;41.866;12.462;2023-11-19T03:49:19;12.75;;;7.38;;
43756;SDS011;73222;41.866;12.462;2023-11-19T03:51:44;12.35;;;7.32;;
43756;SDS011;73222;41.866;12.462;2023-11-19T03:54:10;12.30;;;6.65;;
43756;SDS011;73222;41.866;12.462;2023-11-19T03:56:36;12.23;;;6.80;;
43756;SDS011;73222;41.866;12.462;2023-11-19T03:59:02;12.23;;;7.35;;
43756;SDS011;73222;41.866;12.462;2023-11-19T04:01:28;11.18;;;7.22;;
43756;SDS011;73222;41.866;12.462;2023-11-19T04:03:53;13.80;;;7.88;;
43756;SDS011;73222;41.866;12.462;2023-11-19T04:06:20;11.05;;;6.75;;
43756;SDS011;73222;41.866;12.462;2023-11-19T04:08:46;11.48;;;6.82;;
43756;SDS011;73222;41.866;12.462;2023-11-19T04:11:11;15.02;;;7.93;;
43756;SDS011;73222;41.866;12.462;2023-11-19T04:13:37;10.55;;;6.75;;
43756;SDS011;73222;41.866;12.462;2023-11-19T04:16:02;13.73;;;7.40;;
43756;SDS011;73222;41.866;12.462;2023-11-19T04:18:28;12.63;;;7.07;;
43756;SDS011;73222;41.866;12.462;2023-11-19T04:20:53;11.40;;;6.65;;
43756;SDS011;73222;41.866;12.462;2023-11-19T04:23:18;12.68;;;6.65;;
43756;SDS011;73222;41.866;12.462;2023-11-19T04:25:44;10.52;;;6.25;;
43756;SDS011;73222;41.866;12.462;2023-11-19T04:28:09;12.27;;;7.28;;
43756;SDS011;73222;41.866;12.462;2023-11-19T04:30:35;13.25;;;7.28;;
43756;SDS011;73222;41.866;12.462;2023-11-19T04:33:02;11.98;;;7.32;;
43756;SDS011;73222;41.866;12.462;2023-11-19T04:35:27;12.98;;;7.40;;
43756;SDS011;73222;41.866;12.462;2023-11-19T04:37:52;13.55;;;7.20;;
43756;SDS011;73222;41.866;12.462;2023-11-19T04:40:18;11.45;;;7.10;;
43756;SDS011;73222;41.866;12.462;2023-11-19T04:42:43;12.75;;;6.45;;
43756;SDS011;73222;41.866;12.462;2023-11-19T04:45:09;11.25;;;7.40;;
43756;SDS011;73222;41.866;12.462;2023-11-19T04:47:35;13.07;;;6.88;;
43756;SDS011;73222;41.866;12.462;2023-11-19T04:50:04;11.85;;;7.30;;
43756;SDS011;73222;41.866;12.462;2023-11-19T04:52:30;13.90;;;7.43;;
43756;SDS011;73222;41.866;12.462;2023-11-19T04:54:55;12.70;;;7.00;;
43756;SDS011;73222;41.866;12.462;2023-11-19T04:57:20;11.27;;;6.55;;
43756;SDS011;73222;41.866;12.462;2023-11-19T04:59:46;13.95;;;7.30;;
43756;SDS011;73222;41.866;12.462;2023-11-19T05:02:11;13.80;;;8.05;;
43756;SDS011;73222;41.866;12.462;2023-11-19T05:04:37;16.63;;;7.70;;
43756;SDS011;73222;41.866;12.462;2023-11-19T05:07:08;9.30;;;6.72;;
43756;SDS011;73222;41.866;12.462;2023-11-19T05:09:33;13.85;;;7.43;;
43756;SDS011;73222;41.866;12.462;2023-11-19T05:11:58;13.48;;;7.38;;
43756;SDS011;73222;41.866;12.462;2023-11-19T05:14:24;15.35;;;8.35;;
43756;SDS011;73222;41.866;12.462;2023-11-19T05:16:49;12.85;;;7.43;;
43756;SDS011;73222;41.866;12.462;2023-11-19T05:19:15;12.73;;;7.18;;
43756;SDS011;73222;41.866;12.462;2023-11-19T05:21:43;14.07;;;7.50;;
43756;SDS011;73222;41.866;12.462;2023-11-19T05:24:10;13.00;;;7.70;;
43756;SDS011;73222;41.866;12.462;2023-11-19T05:26:36;10.18;;;6.65;;
43756;SDS011;73222;41.866;12.462;2023-11-19T05:29:03;17.17;;;7.63;;
43756;SDS011;73222;41.866;12.462;2023-11-19T05:31:29;12.88;;;7.78;;
43756;SDS011;73222;41.866;12.462;2023-11-19T05:33:55;12.45;;;8.48;;
43756;SDS011;73222;41.866;12.462;2023-11-19T05:36:20;13.70;;;7.97;;
43756;SDS011;73222;41.866;12.462;2023-11-19T05:38:46;12.32;;;8.15;;
43756;SDS011;73222;41.866;12.462;2023-11-19T05:41:11;17.00;;;7.88;;
43756;SDS011;73222;41.866;12.462;2023-11-19T05:43:37;14.95;;;8.18;;
43756;SDS011;73222;41.866;12.462;2023-11-19T05:46:05;17.00;;;7.65;;
43756;SDS011;73222;41.866;12.462;2023-11-19T05:48:30;15.20;;;8.05;;
43756;SDS011;73222;41.866;12.462;2023-11-19T05:50:56;10.32;;;6.75;;
43756;SDS011;73222;41.866;12.462;2023-11-19T05:53:21;12.02;;;7.80;;
43756;SDS011;73222;41.866;12.462;2023-11-19T05:55:47;14.25;;;8.07;;
43756;SDS011;73222;41.866;12.462;2023-11-19T05:58:27;12.18;;;6.97;;
43756;SDS011;73222;41.866;12.462;2023-11-19T06:00:56;15.98;;;7.63;;
43756;SDS011;73222;41.866;12.462;2023-11-19T06:03:22;13.38;;;7.72;;
43756;SDS011;73222;41.866;12.462;2023-11-19T06:05:48;15.85;;;7.68;;
43756;SDS011;73222;41.866;12.462;2023-11-19T06:08:14;14.20;;;7.40;;
43756;SDS011;73222;41.866;12.462;2023-11-19T06:10:40;17.00;;;8.73;;
43756;SDS011;73222;41.866;12.462;2023-11-19T06:13:06;17.67;;;7.90;;
43756;SDS011;73222;41.866;12.462;2023-11-19T06:15:32;17.48;;;7.75;;
43756;SDS011;73222;41.866;12.462;2023-11-19T06:17:58;15.70;;;7.25;;
43756;SDS011;73222;41.866;12.462;2023-11-19T06:20:26;12.38;;;8.23;;
43756;SDS011;73222;41.866;12.462;2023-11-19T06:22:54;13.20;;;7.60;;
43756;SDS011;73222;41.866;12.462;2023-11-19T06:25:20;13.60;;;7.53;;
43756;SDS011;73222;41.866;12.462;2023-11-19T06:27:45;14.77;;;7.60;;
43756;SDS011;73222;41.866;12.462;2023-11-19T06:30:10;14.30;;;7.65;;
43756;SDS011;73222;41.866;12.462;2023-11-19T06:32:36;12.77;;;7.00;;
43756;SDS011;73222;41.866;12.462;2023-11-19T06:35:02;11.55;;;7.18;;
43756;SDS011;73222;41.866;12.462;2023-11-19T06:37:29;14.93;;;7.88;;
43756;SDS011;73222;41.866;12.462;2023-11-19T06:39:55;14.13;;;8.65;;
43756;SDS011;73222;41.866;12.462;2023-11-19T06:42:21;13.05;;;7.82;;
43756;SDS011;73222;41.866;12.462;2023-11-19T06:44:46;12.93;;;7.38;;
43756;SDS011;73222;41.866;12.462;2023-11-19T06:47:11;12.18;;;7.47;;
43756;SDS011;73222;41.866;12.462;2023-11-19T06:49:37;13.38;;;7.97;;
43756;SDS011;73222;41.866;12.462;2023-11-19T06:52:02;12.00;;;7.43;;
43756;SDS011;73222;41.866;12.462;2023-11-19T06:54:29;12.05;;;8.07;;
43756;SDS011;73222;41.866;12.462;2023-11-19T06:56:54;14.50;;;8.10;;
43756;SDS011;73222;41.866;12.462;2023-11-19T06:59:20;14.07;;;7.90;;
43756;SDS011;73222;41.866;12.462;2023-11-19T07:01:46;13.93;;;8.48;;
43756;SDS011;73222;41.866;12.462;2023-11-19T07:04:11;14.70;;;7.93;;
43756;SDS011;73222;41.866;12.462;2023-11-19T07:06:37;13.38;;;8.10;;
43756;SDS011;73222;41.866;12.462;2023-11-19T07:09:03;15.93;;;8.25;;
43756;SDS011;73222;41.866;12.462;2023-11-19T07:11:35;11.18;;;7.65;;
43756;SDS011;73222;41.866;12.462;2023-11-19T07:14:01;11.57;;;8.10;;
43756;SDS011;73222;41.866;12.462;2023-11-19T07:16:27;10.63;;;7.30;;
43756;SDS011;73222;41.866;12.462;2023-11-19T07:18:53;14.02;;;8.77;;
43756;SDS011;73222;41.866;12.462;2023-11-19T07:21:19;13.23;;;8.57;;
43756;SDS011;73222;41.866;12.462;2023-11-19T07:23:44;13.25;;;8.63;;
43756;SDS011;73222;41.866;12.462;2023-11-19T07:26:10;12.95;;;8.38;;
43756;SDS011;73222;41.866;12.462;2023-11-19T07:28:36;12.10;;;8.40;;
43756;SDS011;73222;41.866;12.462;2023-11-19T07:31:01;14.27;;;9.10;;
43756;SDS011;73222;41.866;12.462;2023-11-19T07:33:27;14.25;;;8.82;;
43756;SDS011;73222;41.866;12.462;2023-11-19T07:35:53;16.73;;;9.25;;
43756;SDS011;73222;41.866;12.462;2023-11-19T07:38:18;12.93;;;8.85;;
43756;SDS011;73222;41.866;12.462;2023-11-19T07:40:43;14.63;;;9.48;;
43756;SDS011;73222;41.866;12.462;2023-11-19T07:43:09;13.18;;;8.77;;
43756;SDS011;73222;41.866;12.462;2023-11-19T07:45:34;13.18;;;8.70;;
43756;SDS011;73222;41.866;12.462;2023-11-19T07:47:59;14.90;;;9.05;;
43756;SDS011;73222;41.866;12.462;2023-11-19T07:50:26;12.50;;;8.55;;
43756;SDS011;73222;41.866;12.462;2023-11-19T07:52:52;13.10;;;8.10;;
43756;SDS011;73222;41.866;12.462;2023-11-19T07:55:18;12.40;;;7.85;;
43756;SDS011;73222;41.866;12.462;2023-11-19T07:57:44;12.77;;;8.48;;
43756;SDS011;73222;41.866;12.462;2023-11-19T08:00:09;10.50;;;7.57;;
43756;SDS011;73222;41.866;12.462;2023-11-19T08:02:37;11.93;;;7.80;;
43756;SDS011;73222;41.866;12.462;2023-11-19T08:05:03;14.25;;;7.82;;
43756;SDS011;73222;41.866;12.462;2023-11-19T08:07:29;12.30;;;7.85;;
43756;SDS011;73222;41.866;12.462;2023-11-19T08:09:54;13.70;;;8.57;;
43756;SDS011;73222;41.866;12.462;2023-11-19T08:12:23;12.55;;;8.40;;
43756;SDS011;73222;41.866;12.462;2023-11-19T08:14:48;12.73;;;8.73;;
43756;SDS011;73222;41.866;12.462;2023-11-19T08:17:14;14.00;;;8.48;;
43756;SDS011;73222;41.866;12.462;2023-11-19T08:19:39;12.45;;;8.30;;
43756;SDS011;73222;41.866;12.462;2023-11-19T08:22:05;11.48;;;8.35;;
43756;SDS011;73222;41.866;12.462;2023-11-19T08:24:30;11.50;;;7.68;;
43756;SDS011;73222;41.866;12.462;2023-11-19T08:26:55;13.30;;;8.02;;
43756;SDS011;73222;41.866;12.462;2023-11-19T08:29:21;11.90;;;9.05;;
43756;SDS011;73222;41.866;12.462;2023-11-19T08:31:46;13.00;;;8.52;;
43756;SDS011;73222;41.866;12.462;2023-11-19T08:34:12;12.23;;;8.38;;
43756;SDS011;73222;41.866;12.462;2023-11-19T08:36:37;15.68;;;8.77;;
43756;SDS011;73222;41.866;12.462;2023-11-19T08:39:02;12.15;;;8.10;;
43756;SDS011;73222;41.866;12.462;2023-11-19T08:41:28;10.23;;;7.90;;
43756;SDS011;73222;41.866;12.462;2023-11-19T08:43:53;12.35;;;8.00;;
43756;SDS011;73222;41.866;12.462;2023-11-19T08:46:19;12.40;;;8.10;;
43756;SDS011;73222;41.866;12.462;2023-11-19T08:48:44;12.07;;;8.98;;
43756;SDS011;73222;41.866;12.462;2023-11-19T08:51:11;11.77;;;7.95;;
43756;SDS011;73222;41.866;12.462;2023-11-19T08:53:37;10.02;;;7.85;;
43756;SDS011;73222;41.866;12.462;2023-11-19T08:56:03;11.52;;;7.70;;
43756;SDS011;73222;41.866;12.462;2023-11-19T08:58:29;10.45;;;7.93;;
43756;SDS011;73222;41.866;12.462;2023-11-19T09:00:55;12.15;;;8.65;;
43756;SDS011;73222;41.866;12.462;2023-11-19T09:03:21;8.88;;;7.00;;
43756;SDS011;73222;41.866;12.462;2023-11-19T09:05:46;11.63;;;8.02;;
43756;SDS011;73222;41.866;12.462;2023-11-19T09:08:11;9.73;;;7.10;;
43756;SDS011;73222;41.866;12.462;2023-11-19T09:10:37;9.27;;;7.70;;
43756;SDS011;73222;41.866;12.462;2023-11-19T09:13:02;11.38;;;7.25;;
43756;SDS011;73222;41.866;12.462;2023-11-19T09:15:28;10.18;;;8.15;;
43756;SDS011;73222;41.866;12.462;2023-11-19T09:17:54;11.10;;;7.63;;
43756;SDS011;73222;41.866;12.462;2023-11-19T09:20:19;11.88;;;7.90;;
43756;SDS011;73222;41.866;12.462;2023-11-19T09:22:45;12.20;;;8.77;;
43756;SDS011;73222;41.866;12.462;2023-11-19T09:25:11;12.85;;;8.65;;
43756;SDS011;73222;41.866;12.462;2023-11-19T09:27:36;11.90;;;7.70;;
43756;SDS011;73222;41.866;12.462;2023-11-19T09:30:01;11.30;;;7.90;;
43756;SDS011;73222;41.866;12.462;2023-11-19T09:32:28;14.38;;;8.57;;
43756;SDS011;73222;41.866;12.462;2023-11-19T09:34:54;11.70;;;8.07;;
43756;SDS011;73222;41.866;12.462;2023-11-19T09:37:19;9.50;;;7.25;;
43756;SDS011;73222;41.866;12.462;2023-11-19T09:39:45;11.30;;;8.63;;
43756;SDS011;73222;41.866;12.462;2023-11-19T09:42:10;12.45;;;7.72;;
43756;SDS011;73222;41.866;12.462;2023-11-19T09:44:37;10.05;;;8.00;;
43756;SDS011;73222;41.866;12.462;2023-11-19T09:47:06;10.15;;;7.75;;
43756;SDS011;73222;41.866;12.462;2023-11-19T09:49:33;11.15;;;8.63;;
43756;SDS011;73222;41.866;12.462;2023-11-19T09:52:01;13.43;;;8.45;;
43756;SDS011;73222;41.866;12.462;2023-11-19T09:54:27;12.15;;;8.93;;
43756;SDS011;73222;41.866;12.462;2023-11-19T09:56:53;11.15;;;8.52;;
43756;SDS011;73222;41.866;12.462;2023-11-19T09:59:24;10.82;;;7.82;;
43756;SDS011;73222;41.866;12.462;2023-11-19T10:01:50;12.93;;;8.48;;
43756;SDS011;73222;41.866;12.462;2023-11-19T10:04:16;12.43;;;8.10;;
43756;SDS011;73222;41.866;12.462;2023-11-19T10:06:44;10.65;;;8.18;;
43756;SDS011;73222;41.866;12.462;2023-11-19T10:09:09;9.70;;;7.72;;
43756;SDS011;73222;41.866;12.462;2023-11-19T10:11:36;9.57;;;7.88;;
43756;SDS011;73222;41.866;12.462;2023-11-19T10:14:02;11.40;;;7.80;;
43756;SDS011;73222;41.866;12.462;2023-11-19T10:16:28;11.60;;;7.75;;
43756;SDS011;73222;41.866;12.462;2023-11-19T10:18:55;11.25;;;7.55;;
43756;SDS011;73222;41.866;12.462;2023-11-19T10:21:21;12.10;;;7.88;;
43756;SDS011;73222;41.866;12.462;2023-11-19T10:23:47;10.68;;;7.60;;
43756;SDS011;73222;41.866;12.462;2023-11-19T10:26:22;13.07;;;7.05;;
43756;SDS011;73222;41.866;12.462;2023-11-19T10:28:48;9.15;;;7.00;;
43756;SDS011;73222;41.866;12.462;2023-11-19T10:31:14;14.65;;;7.95;;
43756;SDS011;73222;41.866;12.462;2023-11-19T10:33:43;11.68;;;7.85;;
43756;SDS011;73222;41.866;12.462;2023-11-19T10:36:10;13.80;;;8.27;;
43756;SDS011;73222;41.866;12.462;2023-11-19T10:38:39;10.50;;;7.38;;
43756;SDS011;73222;41.866;12.462;2023-11-19T10:41:05;13.98;;;8.30;;
43756;SDS011;73222;41.866;12.462;2023-11-19T10:43:31;12.88;;;8.13;;
43756;SDS011;73222;41.866;12.462;2023-11-19T10:46:10;13.55;;;8.43;;
43756;SDS011;73222;41.866;12.462;2023-11-19T10:48:36;13.38;;;8.15;;
43756;SDS011;73222;41.866;12.462;2023-11-19T10:51:02;10.38;;;8.00;;
43756;SDS011;73222;41.866;12.462;2023-11-19T10:53:32;13.48;;;8.18;;
43756;SDS011;73222;41.866;12.462;2023-11-19T10:56:00;15.02;;;7.75;;
43756;SDS011;73222;41.866;12.462;2023-11-19T10:58:29;16.88;;;7.95;;
43756;SDS011;73222;41.866;12.462;2023-11-19T11:01:00;12.23;;;8.15;;
43756;SDS011;73222;41.866;12.462;2023-11-19T11:03:32;11.18;;;7.32;;
43756;SDS011;73222;41.866;12.462;2023-11-19T11:06:04;12.98;;;8.02;;
43756;SDS011;73222;41.866;12.462;2023-11-19T11:08:30;14.95;;;7.50;;
43756;SDS011;73222;41.866;12.462;2023-11-19T11:10:56;12.50;;;7.35;;
43756;SDS011;73222;41.866;12.462;2023-11-19T11:13:26;9.88;;;6.88;;
43756;SDS011;73222;41.866;12.462;2023-11-19T11:15:56;12.52;;;7.10;;
43756;SDS011;73222;41.866;12.462;2023-11-19T11:18:25;11.40;;;7.75;;
43756;SDS011;73222;41.866;12.462;2023-11-19T11:20:59;12.18;;;6.70;;
43756;SDS011;73222;41.866;12.462;2023-11-19T11:29:03;14.88;;;7.15;;
43756;SDS011;73222;41.866;12.462;2023-11-19T11:37:17;13.50;;;7.97;;
43756;SDS011;73222;41.866;12.462;2023-11-19T11:39:46;12.02;;;7.07;;
43756;SDS011;73222;41.866;12.462;2023-11-19T11:50:11;9.90;;;6.80;;
43756;SDS011;73222;41.866;12.462;2023-11-19T11:55:27;12.48;;;8.35;;
43756;SDS011;73222;41.866;12.462;2023-11-19T11:57:54;10.05;;;7.60;;
43756;SDS011;73222;41.866;12.462;2023-11-19T12:00:29;12.10;;;8.25;;
43756;SDS011;73222;41.866;12.462;2023-11-19T12:02:59;10.60;;;7.60;;
43756;SDS011;73222;41.866;12.462;2023-11-19T12:05:26;12.13;;;7.72;;
43756;SDS011;73222;41.866;12.462;2023-11-19T12:08:03;12.10;;;7.82;;
43756;SDS011;73222;41.866;12.462;2023-11-19T12:10:31;12.32;;;7.68;;
43756;SDS011;73222;41.866;12.462;2023-11-19T12:13:02;12.77;;;8.25;;
43756;SDS011;73222;41.866;12.462;2023-11-19T12:15:32;10.55;;;7.38;;
43756;SDS011;73222;41.866;12.462;2023-11-19T12:17:57;9.35;;;6.97;;
43756;SDS011;73222;41.866;12.462;2023-11-19T12:20:24;9.63;;;6.90;;
43756;SDS011;73222;41.866;12.462;2023-11-19T12:22:51;10.18;;;5.57;;
43756;SDS011;73222;41.866;12.462;2023-11-19T12:25:20;16.85;;;5.00;;
43756;SDS011;73222;41.866;12.462;2023-11-19T12:27:47;7.88;;;4.07;;
43756;SDS011;73222;41.866;12.462;2023-11-19T12:30:17;5.50;;;3.47;;
43756;SDS011;73222;41.866;12.462;2023-11-19T12:32:49;9.68;;;4.72;;
43756;SDS011;73222;41.866;12.462;2023-11-19T12:35:15;7.90;;;3.25;;
43756;SDS011;73222;41.866;12.462;2023-11-19T12:40:14;10.93;;;4.32;;
43756;SDS011;73222;41.866;12.462;2023-11-19T12:42:47;9.15;;;3.47;;
43756;SDS011;73222;41.866;12.462;2023-11-19T12:45:13;10.13;;;3.15;;
43756;SDS011;73222;41.866;12.462;2023-11-19T12:47:41;9.90;;;2.97;;
43756;SDS011;73222;41.866;12.462;2023-11-19T12:50:07;4.13;;;2.50;;
43756;SDS011;73222;41.866;12.462;2023-11-19T12:52:34;7.50;;;3.25;;
43756;SDS011;73222;41.866;12.462;2023-11-19T12:55:00;5.32;;;2.92;;
43756;SDS011;73222;41.866;12.462;2023-11-19T12:57:41;4.57;;;2.92;;
43756;SDS011;73222;41.866;12.462;2023-11-19T13:00:08;7.95;;;4.60;;
43756;SDS011;73222;41.866;12.462;2023-11-19T13:02:46;8.68;;;3.00;;
43756;SDS011;73222;41.866;12.462;2023-11-19T13:08:08;6.68;;;2.92;;
43756;SDS011;73222;41.866;12.462;2023-11-19T13:10:50;8.68;;;3.03;;
43756;SDS011;73222;41.866;12.462;2023-11-19T13:13:17;6.10;;;2.60;;
43756;SDS011;73222;41.866;12.462;2023-11-19T13:15:42;5.85;;;2.20;;
43756;SDS011;73222;41.866;12.462;2023-11-19T13:18:11;5.10;;;2.60;;
43756;SDS011;73222;41.866;12.462;2023-11-19T13:20:37;5.70;;;2.42;;
43756;SDS011;73222;41.866;12.462;2023-11-19T13:23:04;8.07;;;3.60;;
43756;SDS011;73222;41.866;12.462;2023-11-19T13:25:31;7.88;;;3.03;;
43756;SDS011;73222;41.866;12.462;2023-11-19T13:27:57;6.22;;;2.08;;
43756;SDS011;73222;41.866;12.462;2023-11-19T13:30:23;13.02;;;3.20;;
43756;SDS011;73222;41.866;12.462;2023-11-19T13:32:50;5.95;;;2.55;;
43756;SDS011;73222;41.866;12.462;2023-11-19T13:35:16;5.43;;;2.38;;
43756;SDS011;73222;41.866;12.462;2023-11-19T13:37:43;6.82;;;2.40;;
43756;SDS011;73222;41.866;12.462;2023-11-19T13:40:09;5.30;;;2.17;;
43756;SDS011;73222;41.866;12.462;2023-11-19T13:42:39;8.77;;;2.40;;
43756;SDS011;73222;41.866;12.462;2023-11-19T13:45:12;4.25;;;2.30;;
43756;SDS011;73222;41.866;12.462;2023-11-19T13:47:39;8.18;;;2.70;;
43756;SDS011;73222;41.866;12.462;2023-11-19T13:50:09;7.80;;;3.63;;
43756;SDS011;73222;41.866;12.462;2023-11-19T13:52:39;10.32;;;4.00;;
43756;SDS011;73222;41.866;12.462;2023-11-19T13:55:06;10.82;;;4.38;;
43756;SDS011;73222;41.866;12.462;2023-11-19T13:57:33;6.82;;;2.80;;
43756;SDS011;73222;41.866;12.462;2023-11-19T13:59:59;10.02;;;3.20;;
43756;SDS011;73222;41.866;12.462;2023-11-19T14:02:25;7.85;;;2.75;;
43756;SDS011;73222;41.866;12.462;2023-11-19T14:04:50;10.32;;;3.17;;
43756;SDS011;73222;41.866;12.462;2023-11-19T14:07:16;7.15;;;3.38;;
43756;SDS011;73222;41.866;12.462;2023-11-19T14:09:42;8.98;;;3.42;;
43756;SDS011;73222;41.866;12.462;2023-11-19T14:12:07;11.77;;;4.88;;
43756;SDS011;73222;41.866;12.462;2023-11-19T14:14:34;7.07;;;2.85;;
43756;SDS011;73222;41.866;12.462;2023-11-19T14:17:01;6.50;;;3.17;;
43756;SDS011;73222;41.866;12.462;2023-11-19T14:19:28;8.57;;;3.17;;
43756;SDS011;73222;41.866;12.462;2023-11-19T14:21:53;8.65;;;3.58;;
43756;SDS011;73222;41.866;12.462;2023-11-19T14:24:20;6.70;;;3.05;;
43756;SDS011;73222;41.866;12.462;2023-11-19T14:26:47;4.97;;;3.10;;
43756;SDS011;73222;41.866;12.462;2023-11-19T14:29:14;6.55;;;3.20;;
43756;SDS011;73222;41.866;12.462;2023-11-19T14:31:39;6.43;;;3.05;;
43756;SDS011;73222;41.866;12.462;2023-11-19T14:34:05;9.60;;;3.00;;
43756;SDS011;73222;41.866;12.462;2023-11-19T14:36:30;6.85;;;3.60;;
43756;SDS011;73222;41.866;12.462;2023-11-19T14:38:56;6.43;;;3.05;;
43756;SDS011;73222;41.866;12.462;2023-11-19T14:41:22;6.88;;;3.25;;
43756;SDS011;73222;41.866;12.462;2023-11-19T14:43:48;9.88;;;3.17;;
43756;SDS011;73222;41.866;12.462;2023-11-19T14:46:13;6.35;;;3.30;;
43756;SDS011;73222;41.866;12.462;2023-11-19T14:48:39;6.95;;;3.85;;
43756;SDS011;73222;41.866;12.462;2023-11-19T14:51:04;5.70;;;3.08;;